Flight Track Log - Related Links

Times and Time Zones

All times are in EDT time to prevent confusion due to time zone crossing. See the JZA8751 flight status page for this flight to view local times or setup timezone preferences in your user account.

Time Position Orientation Groundspeed Altitude Reporting Facility
EDT Latitude Longitude Course Direction KTS MPH feet Rate Location/Type
Mon 09:11:24 AM 45.4500 -73.7167 360° North 20 23 100  Level Montreal Center
Mon 09:14:00 AM 45.5075 -73.8002 290° West  Level Estimated
Mon 09:18:07 AM 45.4500 -73.7167 314° West 110 127 600  Level Montreal Center
Mon 09:19:07 AM 45.4667 -73.7500 305° West 120 138 2,100 1,450 Climbing Montreal Center
Mon 09:20:07 AM 45.4833 -73.8000 295° West 130 150 3,500 800 Climbing Montreal Center
Mon 09:21:00 AM 45.8203 -74.2587 311° West  Level Estimated
Mon 09:21:07 AM 45.5000 -73.8667 290° West 170 196 3,700  Level Montreal Center
Mon 09:22:00 AM 45.8648 -74.3246 296° West  Level Estimated
Mon 09:22:07 AM 45.5333 -73.9167 314° West 190 219 4,000  Level Montreal Center
Mon 09:23:00 AM 45.9093 -74.3906 314° West  Level Estimated
Mon 09:23:07 AM 45.5500 -73.9833 290° West 180 207 5,000  Level Montreal Center
Mon 09:24:07 AM 45.5833 -74.0333 314° West 150 173 6,500 1,350 Climbing Montreal Center
Mon 09:25:07 AM 45.6167 -74.0833 314° West 150 173 7,700 1,150 Climbing Montreal Center
Mon 09:26:07 AM 45.6333 -74.1500 290° West 150 173 8,800 1,000 Climbing Montreal Center
Mon 09:27:07 AM 45.6500 -74.2000 296° West 150 173 9,700 600 Climbing Montreal Center
Mon 09:28:07 AM 45.6667 -74.2333 306° West 180 207 10,000 150 Climbing Montreal Center
Mon 09:29:07 AM 45.7000 -74.3167 300° West 200 230 10,000 100 Level Montreal Center
Mon 09:30:07 AM 45.7333 -74.3833 306° West 210 242 10,200 500 Climbing Montreal Center
Mon 09:31:07 AM 45.7667 -74.4500 306° West 200 230 11,000 650 Climbing Montreal Center
Mon 09:32:07 AM 45.8000 -74.5000 314° West 190 219 11,500 650 Climbing Montreal Center
Mon 09:33:07 AM 45.8500 -74.5500 325° Northwest 190 219 12,300 950 Climbing Montreal Center
Mon 09:34:07 AM 45.8833 -74.6000 314° West 190 219 13,400 1,000 Climbing Montreal Center
Mon 09:35:07 AM 45.9167 -74.6500 314° West 180 207 14,300 1,000 Climbing Montreal Center
Mon 09:36:07 AM 45.9500 -74.6833 325° Northwest 180 207 15,400 1,000 Climbing Montreal Center
Mon 09:37:07 AM 45.9833 -74.7333 314° West 180 207 16,300 950 Climbing Montreal Center
Mon 09:38:07 AM 46.0333 -74.8167 311° West 180 207 17,300 950 Climbing Montreal Center
Mon 09:39:07 AM 46.0667 -74.8500 325° Northwest 180 207 18,200 800 Climbing Montreal Center
Mon 09:40:07 AM 46.1000 -74.9000 314° West 180 207 18,900 750 Climbing Montreal Center
Mon 09:41:07 AM 46.1333 -74.9500 314° West 180 207 19,700 550 Climbing Montreal Center
Mon 09:42:07 AM 46.1667 -75.0000 314° West 190 219 20,000 150 Climbing Montreal Center
Mon 09:43:07 AM 46.2333 -75.0667 325° Northwest 210 242 20,000  Level Montreal Center
Mon 09:44:07 AM 46.2833 -75.1167 325° Northwest 220 253 20,000  Level Montreal Center
Mon 09:45:07 AM 46.3333 -75.1833 317° Northwest 230 265 20,000  Level Montreal Center
Mon 09:46:07 AM 46.3667 -75.2333 314° West 230 265 20,000  Level Montreal Center
Mon 09:47:07 AM 46.4167 -75.3167 311° West 230 265 20,000  Level Montreal Center
Mon 09:48:07 AM 46.4667 -75.3833 317° Northwest 230 265 20,000  Level Montreal Center
Mon 09:49:07 AM 46.5167 -75.4333 325° Northwest 230 265 20,000  Level Montreal Center
Mon 09:50:07 AM 46.5500 -75.5000 306° West 230 265 20,000  Level Montreal Center
Mon 09:51:07 AM 46.6000 -75.5833 311° West 230 265 20,000  Level Montreal Center
Mon 09:52:07 AM 46.6500 -75.6333 326° Northwest 230 265 20,000  Level Montreal Center
Mon 09:53:07 AM 46.7000 -75.7000 318° Northwest 230 265 20,000  Level Montreal Center
Mon 09:54:07 AM 46.7333 -75.7667 306° West 230 265 20,000  Level Montreal Center
Mon 09:55:07 AM 46.7833 -75.8167 326° Northwest 230 265 20,000  Level Montreal Center
Mon 09:56:07 AM 46.8167 -75.9000 300° West 220 253 20,000  Level Montreal Center
Mon 09:57:07 AM 46.8667 -75.9667 318° Northwest 220 253 20,000  Level Montreal Center
Mon 09:58:07 AM 46.9000 -76.0333 306° West 220 253 20,000  Level Montreal Center
Mon 09:59:07 AM 46.9333 -76.0833 314° West 220 253 20,000  Level Montreal Center
Mon 10:00:07 AM 46.9833 -76.1667 311° West 220 253 20,000  Level Montreal Center
Mon 10:01:07 AM 47.0167 -76.2333 306° West 220 253 20,000  Level Montreal Center
Mon 10:02:07 AM 47.0667 -76.3167 311° West 220 253 20,000  Level Montreal Center
Mon 10:03:07 AM 47.1000 -76.3833 306° West 220 253 20,000  Level Montreal Center
Mon 10:04:07 AM 47.1333 -76.4333 314° West 220 253 20,000  Level Montreal Center
Mon 10:05:07 AM 47.1833 -76.5167 311° West 220 253 20,000  Level Montreal Center
Mon 10:06:07 AM 47.2167 -76.5833 306° West 220 253 20,000  Level Montreal Center
Mon 10:07:07 AM 47.2667 -76.6667 311° West 220 253 20,000  Level Montreal Center
Mon 10:08:07 AM 47.3000 -76.7333 306° West 220 253 20,000  Level Montreal Center
Mon 10:09:07 AM 47.3333 -76.7833 315° West 220 253 20,000 -500 Level Montreal Center
Mon 10:10:07 AM 47.3833 -76.8667 312° West 230 265 19,000 -1,250 Descending Montreal Center
Mon 10:11:07 AM 47.4333 -76.9667 306° West 250 288 17,500 -1,400 Descending Montreal Center
Mon 10:12:07 AM 47.4667 -77.0333 307° West 260 299 16,200 -1,350 Descending Montreal Center
Mon 10:13:07 AM 47.5167 -77.1167 312° West 250 288 14,800 -1,350 Descending Montreal Center
Mon 10:14:07 AM 47.5667 -77.1833 318° Northwest 240 276 13,500 -950 Descending Montreal Center
Mon 10:15:07 AM 47.6000 -77.2667 301° West 240 276 12,900 -600 Descending Montreal Center
Mon 10:17:00 AM 47.6694 -77.3878 310° West  Level FlightAware Approximate
Mon 10:24:00 AM 47.9643 -77.7524 345° North  Level FlightAware Approximate
Mon 10:25:00 AM 48.0199 -77.7667 North  Level FlightAware Approximate
Mon 10:26:00 AM 48.0500 -77.7667 North  Level FlightAware Approximate
Mon 10:27:00 AM 48.0533 -77.7828 North  Level Estimated
Mon 10:28:00 AM 48.0533 -77.7828 North  Level Estimated
Mon 10:29:00 AM 48.0533 -77.7828 North  Level Estimated
Mon 10:30:00 AM 48.0533 -77.7828 North  Level Estimated
Mon 10:31:00 AM 48.0533 -77.7828 North  Level Estimated

Login

Don't have an account? Register now (free) for customized features, flight alerts, and more!